Time;durP1;ratioP1;P1;durP2;ratioP2;P2;SDS_P1;SDS_P2;PMS_P1;PMS_P2;Temp;Humidity;BMP_temperature;BMP_pressure;BME280_temperature;BME280_humidity;BME280_pressure;Samples;Min_cycle;Max_cycle;Signal;HPM_P1;HPM_P2
2023/09/16 00:00:53;;;;;;;4.57;3.17;;;;;;;15.14;74.01;101335.03;7394967;19;20010;-69
2023/09/16 00:03:22;;;;;;;7.13;4.93;;;;;;;15.12;74.30;101333.38;7393160;19;20015;-69
2023/09/16 00:05:53;;;;;;;5.35;3.50;;;;;;;15.10;74.46;101328.13;7394821;19;20018;-70
2023/09/16 00:08:21;;;;;;;4.72;3.35;;;;;;;15.07;74.46;101330.84;7394352;19;20506;-70
2023/09/16 00:10:50;;;;;;;8.27;3.33;;;;;;;15.04;74.43;101324.78;7395966;19;20014;-70
2023/09/16 00:13:19;;;;;;;4.50;3.33;;;;;;;15.01;74.36;101331.03;7401015;19;20019;-68
2023/09/16 00:15:48;;;;;;;4.43;3.47;;;;;;;14.99;74.36;101325.81;7401776;19;20007;-69
2023/09/16 00:18:17;;;;;;;4.95;3.20;;;;;;;14.96;74.41;101336.50;7401867;19;20011;-67
2023/09/16 00:20:48;;;;;;;5.03;3.25;;;;;;;14.93;74.46;101320.72;7400301;19;20014;-68
2023/09/16 00:23:19;;;;;;;6.40;3.40;;;;;;;14.91;74.42;101329.59;7399968;19;20482;-69
2023/09/16 00:25:48;;;;;;;4.15;2.95;;;;;;;14.90;74.82;101333.16;7401541;19;20376;-69
2023/09/16 00:28:16;;;;;;;4.47;3.10;;;;;;;14.87;74.78;101325.31;7402112;19;20423;-69
2023/09/16 00:30:48;;;;;;;5.38;3.47;;;;;;;14.83;74.93;101328.03;7401668;19;20031;-68
2023/09/16 00:33:16;;;;;;;5.05;3.10;;;;;;;14.81;74.53;101329.88;7400255;19;20018;-69
2023/09/16 00:35:45;;;;;;;4.82;3.55;;;;;;;14.79;74.94;101329.06;7401132;19;20411;-68
2023/09/16 00:38:15;;;;;;;5.03;3.55;;;;;;;14.76;75.07;101326.53;7401410;19;20041;-69
2023/09/16 00:40:46;;;;;;;4.53;3.78;;;;;;;14.75;74.97;101314.22;7401359;19;20006;-69
2023/09/16 00:43:15;;;;;;;4.53;3.25;;;;;;;14.73;74.89;101313.38;7400116;19;20019;-69
2023/09/16 00:45:43;;;;;;;4.90;3.10;;;;;;;14.70;74.89;101309.97;7401287;19;20023;-69
2023/09/16 00:48:15;;;;;;;4.75;2.92;;;;;;;14.65;75.21;101310.13;7400730;19;20006;-69
2023/09/16 00:50:44;;;;;;;7.63;3.47;;;;;;;14.65;75.14;101310.97;7401494;19;20027;-69
2023/09/16 00:53:14;;;;;;;6.15;3.75;;;;;;;14.64;75.26;101308.34;7399571;19;20478;-69
2023/09/16 00:55:47;;;;;;;8.85;3.50;;;;;;;14.61;75.04;101300.53;7401235;19;20027;-69
2023/09/16 00:58:17;;;;;;;4.28;3.40;;;;;;;14.58;75.31;101292.69;7401148;19;20024;-69
2023/09/16 01:00:47;;;;;;;5.38;3.33;;;;;;;14.54;75.28;101291.06;7401553;19;20030;-68
2023/09/16 01:03:16;;;;;;;4.60;3.20;;;;;;;14.47;75.47;101291.25;7399387;19;20077;-69
2023/09/16 01:05:47;;;;;;;5.70;3.22;;;;;;;14.49;75.53;101296.47;7400544;19;20025;-68
2023/09/16 01:08:17;;;;;;;4.90;3.30;;;;;;;14.45;75.56;101286.91;7400100;19;20015;-69
2023/09/16 01:10:48;;;;;;;5.47;3.50;;;;;;;14.43;75.49;101289.63;7397438;19;20495;-69
2023/09/16 01:13:17;;;;;;;4.72;3.58;;;;;;;14.40;75.71;101294.97;7399715;19;20541;-68
2023/09/16 01:15:54;;;;;;;4.53;3.35;;;;;;;14.38;75.62;101296.81;7399812;19;20014;-69
2023/09/16 01:18:29;;;;;;;5.90;3.33;;;;;;;14.34;75.88;101288.09;7399724;19;20091;-69
2023/09/16 01:20:59;;;;;;;7.18;3.03;;;;;;;14.32;75.83;101286.41;7399087;19;20006;-69
2023/09/16 01:23:27;;;;;;;4.95;3.05;;;;;;;14.29;75.92;101282.09;7397925;19;20015;-69
2023/09/16 01:25:58;;;;;;;6.88;3.60;;;;;;;14.27;76.11;101289.19;7399901;19;20022;-69
2023/09/16 01:28:27;;;;;;;6.57;3.78;;;;;;;14.24;76.17;101294.56;7400035;19;20018;-69
2023/09/16 01:30:58;;;;;;;4.38;3.60;;;;;;;14.21;76.29;101301.69;7397406;19;20037;-69
2023/09/16 01:33:36;;;;;;;8.05;3.58;;;;;;;14.20;76.26;101302.59;7396773;19;20014;-69
2023/09/16 01:36:10;;;;;;;5.28;3.55;;;;;;;14.16;76.30;101300.03;7397623;19;20087;-69
2023/09/16 01:38:40;;;;;;;6.95;3.53;;;;;;;14.13;76.16;101292.22;7399820;19;20078;-69
2023/09/16 01:41:13;;;;;;;5.47;3.15;;;;;;;14.11;76.28;101287.88;7399779;19;20099;-69
2023/09/16 01:43:42;;;;;;;4.35;3.65;;;;;;;14.09;76.43;101287.94;7398165;19;20031;-69
2023/09/16 01:46:12;;;;;;;8.50;3.80;;;;;;;14.07;76.61;101280.97;7399141;19;20027;-69
2023/09/16 01:48:40;;;;;;;6.30;3.40;;;;;;;14.05;76.51;101286.25;7399104;19;20014;-69
2023/09/16 01:51:09;;;;;;;5.20;3.00;;;;;;;14.03;76.70;101274.91;7396810;19;20023;-69
2023/09/16 01:53:37;;;;;;;5.63;3.50;;;;;;;14.01;76.60;101282.00;7397771;19;20023;-69
2023/09/16 01:56:06;;;;;;;4.05;3.20;;;;;;;13.98;76.79;101276.81;7398762;19;20031;-69
2023/09/16 01:58:37;;;;;;;8.43;3.60;;;;;;;13.96;76.62;101275.97;7398730;19;20018;-69
2023/09/16 02:01:08;;;;;;;5.13;3.60;;;;;;;13.95;76.80;101271.59;7399068;19;20011;-69
2023/09/16 02:03:36;;;;;;;3.67;3.00;;;;;;;13.92;77.06;101275.19;7397694;19;20015;-68
2023/09/16 02:06:05;;;;;;;6.25;3.35;;;;;;;13.90;77.02;101270.88;7398469;19;20019;-69
2023/09/16 02:08:34;;;;;;;6.45;3.03;;;;;;;13.87;77.00;101273.59;7397994;19;20011;-68
2023/09/16 02:11:04;;;;;;;7.15;3.83;;;;;;;13.84;76.83;101270.13;7398383;19;20019;-69
2023/09/16 02:13:35;;;;;;;6.28;3.60;;;;;;;13.82;77.03;101271.94;7396922;19;20006;-69
2023/09/16 02:16:06;;;;;;;5.22;3.03;;;;;;;13.81;77.20;101267.59;7396704;19;20074;-69
2023/09/16 02:18:35;;;;;;;4.93;3.70;;;;;;;13.79;77.15;101264.09;7398531;19;20040;-69
2023/09/16 02:21:03;;;;;;;7.85;4.15;;;;;;;13.78;77.17;101257.09;7396934;19;20022;-69
2023/09/16 02:23:32;;;;;;;6.20;3.45;;;;;;;13.77;77.37;101258.00;7396796;19;20014;-69
2023/09/16 02:26:02;;;;;;;5.40;3.85;;;;;;;13.77;77.34;101265.06;7397437;19;20514;-69
2023/09/16 02:28:31;;;;;;;6.10;3.80;;;;;;;13.74;77.47;101258.09;7398143;19;20373;-69
2023/09/16 02:30:59;;;;;;;4.65;3.53;;;;;;;13.74;77.49;101262.53;7397692;19;20116;-69
2023/09/16 02:33:30;;;;;;;4.55;3.72;;;;;;;13.72;77.54;101257.25;7394172;19;20474;-69
2023/09/16 02:35:58;;;;;;;7.22;3.80;;;;;;;13.72;77.87;101253.78;7397299;19;20502;-68
2023/09/16 02:38:27;;;;;;;4.88;3.40;;;;;;;13.71;77.52;101252.91;7397420;19;20015;-68
2023/09/16 02:40:55;;;;;;;6.72;3.58;;;;;;;13.70;77.85;101245.91;7396735;19;20015;-69
2023/09/16 02:43:31;;;;;;;5.88;3.22;;;;;;;13.69;77.89;101250.28;7396441;19;20035;-68
2023/09/16 02:45:59;;;;;;;6.45;3.45;;;;;;;13.69;77.63;101244.16;7397536;19;20015;-69
2023/09/16 02:48:30;;;;;;;5.68;3.38;;;;;;;13.70;77.83;101245.91;7397074;19;20031;-69
2023/09/16 02:50:59;;;;;;;7.70;4.07;;;;;;;13.70;77.88;101245.91;7396673;19;20050;-69
2023/09/16 02:53:27;;;;;;;6.13;3.17;;;;;;;13.70;77.94;101248.53;7396194;19;20085;-68
2023/09/16 02:55:57;;;;;;;4.90;3.67;;;;;;;13.72;77.92;101253.78;7394771;19;20014;-68
2023/09/16 02:58:32;;;;;;;4.55;3.50;;;;;;;13.70;77.80;101245.91;7396733;19;20018;-68
2023/09/16 03:01:11;;;;;;;6.75;3.25;;;;;;;13.71;78.10;101250.28;7396323;19;20481;-68
2023/09/16 03:03:43;;;;;;;4.85;3.40;;;;;;;13.72;78.13;101252.00;7395784;19;20018;-68
2023/09/16 03:06:11;;;;;;;6.68;4.03;;;;;;;13.74;77.98;101251.97;7395943;19;20010;-68
2023/09/16 03:08:40;;;;;;;4.13;3.60;;;;;;;13.74;78.03;101247.56;7395921;19;20015;-68
2023/09/16 03:11:09;;;;;;;6.07;4.10;;;;;;;13.75;77.97;101245.75;7395752;19;20014;-68
2023/09/16 03:13:37;;;;;;;5.03;3.30;;;;;;;13.75;78.18;101238.75;7394712;19;20156;-68
2023/09/16 03:16:20;;;;;;;5.97;3.67;;;;;;;13.77;78.22;101242.19;7396296;19;20022;-69
2023/09/16 03:18:53;;;;;;;5.65;3.80;;;;;;;13.76;78.03;101236.94;7396468;19;20019;-68
2023/09/16 03:21:22;;;;;;;9.13;7.00;;;;;;;13.79;77.93;101234.25;7394657;19;20591;-69
2023/09/16 03:23:51;;;;;;;9.32;4.97;;;;;;;13.78;77.98;101222.81;7394216;19;20011;-68
2023/09/16 03:26:19;;;;;;;6.03;3.55;;;;;;;13.78;78.22;101221.97;7395573;19;20450;-69
2023/09/16 03:28:48;;;;;;;4.90;3.53;;;;;;;13.77;77.91;101215.81;7395483;19;20020;-69
2023/09/16 03:31:17;;;;;;;7.32;4.10;;;;;;;13.77;77.77;101205.25;7395757;19;20040;-69
2023/09/16 03:33:46;;;;;;;5.28;3.50;;;;;;;13.77;78.03;101199.97;7394645;19;20014;-69
2023/09/16 03:36:17;;;;;;;4.72;3.47;;;;;;;13.76;78.12;101208.84;7395581;19;20031;-68
2023/09/16 03:38:50;;;;;;;5.07;3.97;;;;;;;13.74;78.13;101199.22;7395934;19;20042;-68
2023/09/16 03:41:18;;;;;;;4.63;3.33;;;;;;;13.73;78.18;101193.06;7395465;19;20023;-68
2023/09/16 03:43:47;;;;;;;5.38;3.28;;;;;;;13.69;78.04;101194.94;7394207;19;20018;-68
2023/09/16 03:46:15;;;;;;;5.93;3.40;;;;;;;13.68;78.10;101200.25;7393080;19;20032;-69
2023/09/16 03:48:44;;;;;;;5.78;3.55;;;;;;;13.66;78.28;101191.50;7395142;19;20019;-68
2023/09/16 03:51:13;;;;;;;7.28;4.28;;;;;;;13.62;78.39;101197.78;7395129;19;20018;-68
2023/09/16 03:53:44;;;;;;;5.70;4.10;;;;;;;13.61;78.33;101206.59;7393218;19;20019;-69
2023/09/16 03:56:12;;;;;;;95.97;56.97;;;;;;;13.58;78.51;101198.78;7394746;19;20505;-69
2023/09/16 03:58:40;;;;;;;18.30;11.50;;;;;;;13.55;78.48;101198.84;7394948;19;20018;-69
2023/09/16 04:01:09;;;;;;;8.95;6.22;;;;;;;13.52;78.33;101200.66;7394857;19;20014;-69
2023/09/16 04:03:37;;;;;;;12.80;6.60;;;;;;;13.48;78.69;101196.41;7393620;19;20032;-68
2023/09/16 04:06:06;;;;;;;10.40;5.25;;;;;;;13.46;78.72;101195.56;7394715;19;20015;-68
2023/09/16 04:08:35;;;;;;;5.43;3.95;;;;;;;13.44;78.78;101200.00;7392818;19;20014;-68
2023/09/16 04:11:06;;;;;;;7.97;5.53;;;;;;;13.40;78.84;101206.25;7393355;19;20032;-68
2023/09/16 04:13:35;;;;;;;8.82;4.10;;;;;;;13.39;78.90;101206.31;7392851;19;20035;-67
2023/09/16 04:16:03;;;;;;;9.63;6.10;;;;;;;13.36;78.77;101201.94;7392835;19;20063;-69
2023/09/16 04:18:32;;;;;;;5.05;4.00;;;;;;;13.32;78.90;101206.44;7394603;19;20423;-69
2023/09/16 04:21:07;;;;;;;6.50;4.50;;;;;;;13.30;78.78;101202.97;7392549;19;20015;-69
2023/09/16 04:23:41;;;;;;;7.28;4.28;;;;;;;13.28;79.04;101207.41;7393432;19;20108;-69
2023/09/16 04:26:15;;;;;;;9.75;6.32;;;;;;;13.25;79.23;101217.16;7393885;19;20384;-69
2023/09/16 04:28:44;;;;;;;8.55;5.15;;;;;;;13.22;79.21;101212.84;7392219;19;20079;-69
2023/09/16 04:31:12;;;;;;;6.97;5.22;;;;;;;13.20;79.54;101212.91;7393676;19;20411;-69
2023/09/16 04:33:41;;;;;;;9.13;4.07;;;;;;;13.16;79.59;101213.00;7392823;19;20031;-69
2023/09/16 04:36:10;;;;;;;8.43;5.07;;;;;;;13.13;79.48;101218.31;7393827;19;20032;-69
2023/09/16 04:38:39;;;;;;;8.93;6.18;;;;;;;13.11;79.53;101220.16;7393787;19;20021;-69
2023/09/16 04:41:07;;;;;;;6.25;4.57;;;;;;;13.09;79.83;101212.28;7393633;19;20015;-68
2023/09/16 04:43:39;;;;;;;11.02;4.53;;;;;;;13.07;79.93;101214.09;7392419;19;20011;-69
2023/09/16 04:46:07;;;;;;;8.07;4.53;;;;;;;13.02;79.85;101216.81;7393817;19;20015;-69
2023/09/16 04:48:36;;;;;;;5.47;4.32;;;;;;;13.00;79.86;101213.38;7393214;19;20027;-69
2023/09/16 04:51:05;;;;;;;8.00;4.10;;;;;;;12.97;80.03;101212.59;7393363;19;20014;-69
2023/09/16 04:53:34;;;;;;;5.15;4.00;;;;;;;12.95;80.07;101215.22;7390556;19;20024;-69
2023/09/16 04:56:05;;;;;;;7.95;4.45;;;;;;;12.94;80.19;101213.53;7393178;19;20374;-69
2023/09/16 04:58:33;;;;;;;6.55;4.25;;;;;;;12.92;80.23;101214.47;7400685;19;20007;-69
2023/09/16 05:01:05;;;;;;;8.13;4.32;;;;;;;12.90;80.22;101214.47;7400250;19;20496;-69
2023/09/16 05:03:34;;;;;;;5.93;3.90;;;;;;;12.87;80.39;101220.69;7398895;19;20362;-69
2023/09/16 05:06:03;;;;;;;7.95;3.97;;;;;;;12.87;80.36;101219.84;7397903;19;20018;-69
2023/09/16 05:08:31;;;;;;;7.57;4.45;;;;;;;12.85;80.44;101219.88;7400021;19;20014;-69
2023/09/16 05:11:00;;;;;;;6.82;4.63;;;;;;;12.85;80.42;101225.16;7400299;19;20027;-69
2023/09/16 05:13:28;;;;;;;6.03;4.60;;;;;;;12.84;80.45;101219.91;7398685;19;20376;-69
2023/09/16 05:15:57;;;;;;;7.28;4.20;;;;;;;12.81;80.69;101226.09;7399802;19;20011;-69
2023/09/16 05:18:28;;;;;;;7.45;4.55;;;;;;;12.81;80.66;101219.97;7400033;19;20022;-69
2023/09/16 05:20:57;;;;;;;7.68;3.90;;;;;;;12.80;80.60;101227.03;7399495;19;20018;-69
2023/09/16 05:23:25;;;;;;;6.03;4.80;;;;;;;12.80;80.66;101224.38;7398836;19;20014;-70
2023/09/16 05:25:54;;;;;;;6.72;5.07;;;;;;;12.79;80.75;101219.13;7397128;19;20013;-68
2023/09/16 05:28:23;;;;;;;6.00;4.70;;;;;;;12.82;80.91;101219.09;7399233;19;20376;-68
2023/09/16 05:30:51;;;;;;;5.00;4.10;;;;;;;12.83;80.91;101226.94;7399653;19;20034;-67
2023/09/16 05:33:22;;;;;;;5.22;4.60;;;;;;;12.84;80.88;101223.41;7398742;19;20010;-68
2023/09/16 05:35:53;;;;;;;7.80;4.50;;;;;;;12.87;80.87;101227.72;7399812;19;20021;-68
2023/09/16 05:38:21;;;;;;;7.13;4.63;;;;;;;12.87;80.89;101231.22;7397161;19;20015;-68
2023/09/16 05:40:50;;;;;;;5.38;4.07;;;;;;;12.91;80.91;101228.53;7399125;19;20014;-68
2023/09/16 05:43:18;;;;;;;7.05;4.68;;;;;;;12.93;80.59;101232.88;7397804;19;20477;-68
2023/09/16 05:45:52;;;;;;;6.43;4.20;;;;;;;12.95;80.78;101236.31;7396331;19;20024;-69
2023/09/16 05:48:21;;;;;;;6.85;4.07;;;;;;;12.97;80.63;101242.41;7399042;19;20025;-68
2023/09/16 05:50:59;;;;;;;6.60;4.30;;;;;;;13.00;80.64;101244.09;7398263;19;20006;-68
2023/09/16 05:53:28;;;;;;;7.80;4.45;;;;;;;13.01;80.52;101238.78;7398308;19;20018;-69
2023/09/16 05:55:56;;;;;;;6.32;4.38;;;;;;;13.06;80.43;101243.97;7398864;19;20014;-68
2023/09/16 05:58:25;;;;;;;6.40;4.43;;;;;;;13.08;80.39;101242.16;7398440;19;20481;-68
2023/09/16 06:00:57;;;;;;;5.65;4.30;;;;;;;13.11;80.41;101242.06;7398627;19;20014;-69
2023/09/16 06:03:47;;;;;;;7.90;3.95;;;;;;;13.13;80.14;101245.56;7396830;19;20041;-69
2023/09/16 06:06:19;;;;;;;6.78;3.97;;;;;;;13.17;80.18;101243.72;7396084;19;20419;-67
2023/09/16 06:08:48;;;;;;;5.82;3.72;;;;;;;13.20;80.14;101239.25;7396058;19;20017;-68
2023/09/16 06:11:16;;;;;;;8.68;4.65;;;;;;;13.24;80.03;101236.50;7398401;19;20014;-68
2023/09/16 06:13:45;;;;;;;6.10;3.78;;;;;;;13.28;79.89;101231.13;7396748;19;20014;-68
2023/09/16 06:16:13;;;;;;;5.60;4.03;;;;;;;13.33;79.98;101228.38;7397615;19;20013;-68
2023/09/16 06:18:42;;;;;;;5.20;3.85;;;;;;;13.38;80.01;101237.06;7398325;19;20027;-67
2023/09/16 06:21:18;;;;;;;5.47;3.80;;;;;;;13.43;79.85;101232.53;7396525;19;20027;-68
2023/09/16 06:23:56;;;;;;;6.35;3.75;;;;;;;13.50;79.64;101233.25;7396297;19;20014;-70
2023/09/16 06:26:24;;;;;;;5.82;3.47;;;;;;;13.54;79.68;101226.13;7395113;19;20010;-69
2023/09/16 06:28:53;;;;;;;7.25;4.03;;;;;;;13.59;79.67;101224.25;7397580;19;20018;-69
2023/09/16 06:31:21;;;;;;;5.00;3.25;;;;;;;13.64;79.74;101219.69;7397143;19;20011;-68
2023/09/16 06:33:51;;;;;;;5.75;4.18;;;;;;;13.68;79.53;101221.34;7396084;19;20032;-68
2023/09/16 06:36:20;;;;;;;7.80;4.13;;;;;;;13.75;79.25;101222.03;7396623;19;20034;-68
2023/09/16 06:38:48;;;;;;;7.47;4.00;;;;;;;13.82;79.24;101226.25;7397028;19;20013;-68
2023/09/16 06:41:20;;;;;;;6.85;3.70;;;;;;;13.88;79.21;101228.72;7397151;19;20018;-67
2023/09/16 06:43:48;;;;;;;5.03;4.00;;;;;;;13.95;79.11;101229.38;7396132;19;20019;-67
2023/09/16 06:46:17;;;;;;;7.30;4.00;;;;;;;13.99;78.90;101228.41;7394899;19;20006;-68
2023/09/16 06:48:46;;;;;;;5.38;3.60;;;;;;;14.06;78.74;101237.03;7396412;19;20018;-67
2023/09/16 06:51:14;;;;;;;7.13;3.90;;;;;;;14.10;78.55;101223.72;7395941;19;20010;-68
2023/09/16 06:53:43;;;;;;;4.38;3.60;;;;;;;14.16;78.36;101230.56;7395465;19;20031;-68
2023/09/16 06:56:11;;;;;;;6.82;3.63;;;;;;;14.22;78.59;101229.53;7396061;19;20010;-68
2023/09/16 06:58:43;;;;;;;7.32;3.28;;;;;;;14.23;78.53;101224.22;7396329;19;20034;-68
2023/09/16 07:01:12;;;;;;;29.90;18.00;;;;;;;14.32;78.48;101223.06;7394981;19;20034;-68
2023/09/16 07:03:41;;;;;;;16.58;10.25;;;;;;;14.40;78.34;101225.47;7394231;19;20010;-70
2023/09/16 07:06:09;;;;;;;7.65;4.65;;;;;;;14.46;78.08;101214.75;7394195;19;20022;-71
2023/09/16 07:08:38;;;;;;;6.15;3.58;;;;;;;14.52;78.06;101213.66;7395631;19;20022;-71
2023/09/16 07:11:06;;;;;;;6.35;4.25;;;;;;;14.58;77.77;101216.97;7395542;19;20486;-71
2023/09/16 07:13:35;;;;;;;4.75;3.63;;;;;;;14.64;77.75;101215.94;7393785;19;20082;-70
2023/09/16 07:16:06;;;;;;;5.80;3.50;;;;;;;14.71;77.94;101221.91;7396130;19;20078;-70
2023/09/16 07:18:35;;;;;;;6.78;3.53;;;;;;;14.78;77.46;101215.53;7396429;19;20023;-71
2023/09/16 07:21:03;;;;;;;7.50;4.30;;;;;;;14.83;77.63;101219.75;7394926;19;20034;-70
2023/09/16 07:23:31;;;;;;;6.10;3.47;;;;;;;14.90;77.16;101215.16;7393379;19;20633;-70
2023/09/16 07:26:01;;;;;;;4.53;3.90;;;;;;;14.96;77.13;101209.66;7394377;19;20027;-70
2023/09/16 07:28:30;;;;;;;5.72;4.55;;;;;;;15.03;76.97;101220.88;7395422;19;20018;-70
2023/09/16 07:30:59;;;;;;;5.63;3.78;;;;;;;15.11;76.98;101215.34;7395273;19;20368;-70
2023/09/16 07:33:30;;;;;;;5.78;3.90;;;;;;;15.18;77.09;101216.00;7394702;19;20021;-70
2023/09/16 07:35:58;;;;;;;5.93;3.78;;;;;;;15.24;76.83;101214.03;7395630;19;20010;-70
2023/09/16 07:38:27;;;;;;;5.70;3.83;;;;;;;15.32;76.55;101211.97;7395094;19;20015;-70
2023/09/16 07:40:55;;;;;;;5.28;3.88;;;;;;;15.40;76.27;101210.84;7394625;19;20376;-70
2023/09/16 07:43:24;;;;;;;6.32;3.72;;;;;;;15.48;76.25;101209.69;7393686;19;20361;-70
2023/09/16 07:45:52;;;;;;;5.88;3.40;;;;;;;15.57;76.16;101215.53;7393897;19;20014;-72
2023/09/16 07:48:21;;;;;;;5.43;4.03;;;;;;;15.65;76.00;101208.22;7393083;19;20015;-71
2023/09/16 07:50:54;;;;;;;4.78;3.78;;;;;;;15.74;75.73;101207.88;7394952;19;20100;-71
2023/09/16 07:53:22;;;;;;;6.82;4.15;;;;;;;15.83;75.74;101212.00;7392687;19;20014;-71
2023/09/16 07:55:51;;;;;;;5.78;3.83;;;;;;;15.91;75.40;101209.97;7394623;19;20032;-70
2023/09/16 07:58:19;;;;;;;6.32;3.63;;;;;;;16.00;75.32;101202.59;7392803;19;20023;-71
2023/09/16 08:00:48;;;;;;;4.97;3.80;;;;;;;16.06;75.25;101205.00;7394461;19;20015;-71
2023/09/16 08:03:16;;;;;;;5.30;3.58;;;;;;;16.11;74.68;101203.94;7393295;19;20477;-71
2023/09/16 08:05:46;;;;;;;4.10;3.17;;;;;;;16.20;74.50;101204.50;7392715;19;20019;-70
2023/09/16 08:08:17;;;;;;;6.55;3.70;;;;;;;16.26;74.74;101210.44;7393375;19;20545;-71
2023/09/16 08:10:50;;;;;;;7.55;3.58;;;;;;;16.32;74.40;101205.81;7392929;19;20380;-71
2023/09/16 08:13:18;;;;;;;4.50;3.42;;;;;;;16.38;74.36;101206.44;7393929;19;20017;-69
2023/09/16 08:15:47;;;;;;;4.75;3.08;;;;;;;16.44;73.82;101202.69;7394370;19;20032;-70
2023/09/16 08:18:15;;;;;;;5.15;3.75;;;;;;;16.52;73.76;101205.06;7394257;19;20105;-70
2023/09/16 08:20:41;;;;;;;5.35;3.28;;;;;;;16.57;73.69;101197.78;7391816;19;20031;-71
2023/09/16 08:23:11;;;;;;;7.85;3.47;;;;;;;16.66;73.69;101202.69;7391654;19;20025;-70
2023/09/16 08:25:49;;;;;;;4.93;3.40;;;;;;;16.73;73.19;101201.53;7391492;19;20018;-70
2023/09/16 08:28:17;;;;;;;4.82;3.70;;;;;;;16.80;72.95;101194.19;7393368;19;20024;-70
2023/09/16 08:30:46;;;;;;;7.22;4.10;;;;;;;16.87;72.88;101195.69;7393168;19;20185;-71
2023/09/16 08:33:15;;;;;;;4.90;3.50;;;;;;;16.96;72.92;101196.25;7396452;19;20015;-69
2023/09/16 08:35:44;;;;;;;5.57;3.97;;;;;;;17.04;72.98;101202.94;7400569;19;20019;-71
2023/09/16 08:38:13;;;;;;;4.28;3.40;;;;;;;17.12;72.55;101197.31;7398088;19;20031;-71
2023/09/16 08:40:41;;;;;;;7.35;3.58;;;;;;;17.21;72.24;101194.31;7400820;19;20022;-70
2023/09/16 08:43:20;;;;;;;5.38;3.58;;;;;;;17.30;72.29;101197.47;7400117;19;20015;-70
2023/09/16 08:46:02;;;;;;;6.32;3.50;;;;;;;17.36;71.94;101192.78;7399362;19;20031;-70
2023/09/16 08:48:34;;;;;;;6.43;3.85;;;;;;;17.46;71.87;101198.53;7397880;19;20018;-70
2023/09/16 08:51:05;;;;;;;4.43;3.33;;;;;;;17.55;71.52;101190.19;7399803;19;20126;-70
2023/09/16 08:53:37;;;;;;;6.28;3.20;;;;;;;17.65;70.86;101189.78;7399496;19;20019;-70
2023/09/16 08:56:07;;;;;;;5.10;3.35;;;;;;;17.77;70.01;101185.72;7400325;19;20014;-70
2023/09/16 08:58:39;;;;;;;6.32;3.70;;;;;;;17.89;69.42;101178.06;7397412;19;20018;-69
2023/09/16 09:01:15;;;;;;;8.15;3.40;;;;;;;18.00;69.23;101177.59;7399722;19;20486;-70
2023/09/16 09:03:43;;;;;;;4.20;2.95;;;;;;;18.14;67.76;101176.97;7398650;19;20117;-70
2023/09/16 09:06:14;;;;;;;3.92;2.97;;;;;;;18.29;67.43;101177.19;7398937;19;20069;-71
2023/09/16 09:08:43;;;;;;;4.32;2.90;;;;;;;18.42;66.91;101167.69;7400419;19;20031;-70
2023/09/16 09:11:14;;;;;;;4.13;2.78;;;;;;;18.56;66.35;101167.91;7400017;19;20027;-70
2023/09/16 09:13:48;;;;;;;4.90;2.90;;;;;;;18.71;64.56;101162.75;7398832;19;20017;-69
2023/09/16 09:16:19;;;;;;;4.15;3.58;;;;;;;18.88;64.55;101160.13;7400339;19;20068;-70
2023/09/16 09:18:49;;;;;;;5.22;3.05;;;;;;;19.04;64.08;101154.06;7399797;19;20031;-70
2023/09/16 09:21:18;;;;;;;6.80;3.17;;;;;;;19.19;63.82;101160.41;7398512;19;20014;-69
2023/09/16 09:23:46;;;;;;;6.15;3.35;;;;;;;19.31;63.38;101157.09;7396179;19;20405;-70
2023/09/16 09:26:14;;;;;;;4.72;2.63;;;;;;;19.42;63.22;101161.00;7398560;19;20019;-70
2023/09/16 09:28:47;;;;;;;6.90;3.85;;;;;;;19.53;62.99;101158.63;7399665;19;20015;-70
2023/09/16 09:31:16;;;;;;;3.80;3.00;;;;;;;19.64;62.62;101158.09;7400060;19;20031;-70
2023/09/16 09:33:44;;;;;;;7.18;3.25;;;;;;;19.72;62.44;101145.22;7397106;19;20015;-71
2023/09/16 09:36:14;;;;;;;5.43;3.08;;;;;;;19.80;62.62;101135.03;7399210;19;20018;-70
2023/09/16 09:38:44;;;;;;;5.05;3.30;;;;;;;19.89;62.12;101141.69;7396979;19;20474;-71
2023/09/16 09:41:12;;;;;;;4.57;2.60;;;;;;;19.97;62.09;101136.78;7399019;19;20010;-70
2023/09/16 09:43:41;;;;;;;4.55;3.28;;;;;;;20.08;62.13;101135.31;7396670;19;20498;-71
2023/09/16 09:46:14;;;;;;;3.35;3.03;;;;;;;20.17;61.12;101125.00;7397762;19;20435;-71
2023/09/16 09:48:42;;;;;;;3.83;2.95;;;;;;;20.30;60.84;101129.66;7397120;19;20016;-70
2023/09/16 09:51:11;;;;;;;5.88;3.15;;;;;;;20.39;60.71;101129.13;7398698;19;20038;-70
2023/09/16 09:53:40;;;;;;;4.47;3.17;;;;;;;20.55;60.20;101129.13;7397429;19;20028;-70
2023/09/16 09:56:09;;;;;;;6.00;3.50;;;;;;;20.65;59.99;101121.44;7398710;19;20083;-70
2023/09/16 09:58:37;;;;;;;3.15;2.83;;;;;;;20.73;59.66;101118.38;7398226;19;20013;-70
2023/09/16 10:01:06;;;;;;;5.28;3.28;;;;;;;20.81;59.43;101118.75;7396450;19;20018;-70
2023/09/16 10:03:37;;;;;;;3.75;3.40;;;;;;;20.87;58.89;101118.38;7396764;19;20419;-70
2023/09/16 10:06:16;;;;;;;4.50;3.58;;;;;;;20.94;57.81;101114.41;7397606;19;20014;-70
2023/09/16 10:08:45;;;;;;;4.30;3.05;;;;;;;21.04;58.60;101108.53;7398067;19;20021;-70
2023/09/16 10:11:13;;;;;;;3.35;3.05;;;;;;;21.12;58.03;101106.28;7397733;19;20074;-70
2023/09/16 10:13:42;;;;;;;4.53;2.92;;;;;;;21.19;57.98;101104.91;7396780;19;20018;-71
2023/09/16 10:16:11;;;;;;;3.22;2.92;;;;;;;21.27;58.01;101102.66;7397904;19;20415;-70
2023/09/16 10:18:42;;;;;;;3.08;2.78;;;;;;;21.34;57.27;101100.47;7397417;19;20478;-71
2023/09/16 10:21:13;;;;;;;4.05;3.60;;;;;;;21.40;57.69;101104.56;7396173;19;20023;-71
2023/09/16 10:23:42;;;;;;;4.20;3.10;;;;;;;21.45;57.51;101094.47;7396007;19;20019;-71
2023/09/16 10:26:12;;;;;;;4.47;3.35;;;;;;;21.47;57.03;101090.75;7396585;19;20013;-71
2023/09/16 10:28:46;;;;;;;6.00;3.00;;;;;;;21.54;57.03;101093.88;7395296;19;20010;-70
2023/09/16 10:31:16;;;;;;;4.07;3.20;;;;;;;21.60;57.22;101085.53;7395916;19;20015;-71
2023/09/16 10:33:48;;;;;;;4.78;3.15;;;;;;;21.66;56.76;101086.97;7395605;19;20015;-70
2023/09/16 10:36:17;;;;;;;4.05;3.30;;;;;;;21.73;56.96;101074.09;7397312;19;20380;-71
2023/09/16 10:38:46;;;;;;;3.60;3.20;;;;;;;21.80;56.45;101080.75;7395992;19;20031;-70
2023/09/16 10:41:18;;;;;;;6.32;3.67;;;;;;;21.87;56.07;101073.19;7396232;19;20011;-70
2023/09/16 10:43:49;;;;;;;3.85;3.35;;;;;;;21.94;56.04;101066.50;7395403;19;20422;-70
2023/09/16 10:46:19;;;;;;;3.97;3.25;;;;;;;22.01;55.51;101067.81;7395974;19;20022;-70
2023/09/16 10:48:51;;;;;;;4.10;3.38;;;;;;;22.08;55.88;101065.63;7396574;19;20029;-70
2023/09/16 10:51:24;;;;;;;7.22;4.40;;;;;;;22.15;55.42;101061.56;7394472;19;20078;-69
2023/09/16 10:53:57;;;;;;;7.65;4.85;;;;;;;22.21;55.50;101061.16;7393697;19;20384;-71
2023/09/16 10:56:32;;;;;;;7.72;5.50;;;;;;;22.27;55.22;101054.56;7395220;19;20015;-71
2023/09/16 10:59:08;;;;;;;5.32;4.40;;;;;;;22.32;54.46;101052.44;7395785;19;20515;-70
2023/09/16 11:01:41;;;;;;;4.30;3.38;;;;;;;22.37;54.05;101052.16;7396068;19;20014;-70
2023/09/16 11:04:17;;;;;;;6.22;3.97;;;;;;;22.42;54.28;101055.41;7394109;19;20031;-71
2023/09/16 11:06:50;;;;;;;5.50;3.60;;;;;;;22.46;54.51;101051.56;7395393;19;20014;-70
2023/09/16 11:09:19;;;;;;;5.40;4.07;;;;;;;22.53;53.97;101054.66;7396726;19;20398;-70
2023/09/16 11:11:49;;;;;;;4.47;3.70;;;;;;;22.59;53.75;101062.28;7394021;19;20070;-70
2023/09/16 11:14:18;;;;;;;4.93;2.90;;;;;;;22.66;53.29;101055.56;7393541;19;20082;-70
2023/09/16 11:16:47;;;;;;;4.15;3.00;;;;;;;22.74;53.41;101055.88;7395848;19;20018;-70
2023/09/16 11:19:23;;;;;;;5.10;2.95;;;;;;;22.84;52.75;101050.75;7395018;19;20027;-70
2023/09/16 11:21:52;;;;;;;5.13;2.70;;;;;;;22.94;52.57;101048.31;7395954;19;20015;-71
2023/09/16 11:24:21;;;;;;;6.88;3.03;;;;;;;23.02;51.91;101040.59;7394136;19;20387;-71
2023/09/16 11:26:51;;;;;;;3.30;2.88;;;;;;;23.12;51.85;101037.28;7393775;19;20066;-70
2023/09/16 11:29:20;;;;;;;4.55;3.10;;;;;;;23.20;51.62;101035.81;7395521;19;20018;-69
2023/09/16 11:31:49;;;;;;;3.30;2.80;;;;;;;23.29;51.24;101042.34;7395261;19;20018;-69
2023/09/16 11:34:26;;;;;;;3.50;2.90;;;;;;;23.37;50.78;101036.44;7393673;19;20031;-69
2023/09/16 11:36:56;;;;;;;4.80;3.72;;;;;;;23.46;50.55;101035.78;7394600;19;20031;-70